createdAt,value
2018-05-13T00:02:26.510Z,8.47
2018-05-13T00:04:54.040Z,7.80
2018-05-13T00:07:21.551Z,8.10
2018-05-13T00:09:49.826Z,8.60
2018-05-13T00:12:18.113Z,9.30
2018-05-13T00:14:46.384Z,9.67
2018-05-13T00:17:14.703Z,9.87
2018-05-13T00:19:42.226Z,9.70
2018-05-13T00:22:10.510Z,9.43
2018-05-13T00:24:38.782Z,8.80
2018-05-13T00:27:07.063Z,9.70
2018-05-13T00:29:34.594Z,10.50
2018-05-13T00:32:02.870Z,9.47
2018-05-13T00:34:30.394Z,9.70
2018-05-13T00:36:57.905Z,10.10
2018-05-13T00:39:26.182Z,9.93
2018-05-13T00:41:54.498Z,10.30
2018-05-13T00:44:21.999Z,9.73
2018-05-13T00:46:49.520Z,10.63
2018-05-13T00:49:17.033Z,10.57
2018-05-13T00:51:45.341Z,10.60
2018-05-13T00:54:24.704Z,10.50
2018-05-13T00:56:52.247Z,11.03
2018-05-13T00:59:19.749Z,9.83
2018-05-13T01:01:47.254Z,10.13
2018-05-13T01:04:14.790Z,10.43
2018-05-13T01:06:43.063Z,9.10
2018-05-13T01:09:11.366Z,9.83
2018-05-13T01:11:38.868Z,9.93
2018-05-13T01:14:06.387Z,9.80
2018-05-13T01:16:34.126Z,10.87
2018-05-13T01:19:01.649Z,9.67
2018-05-13T01:21:29.160Z,10.20
2018-05-13T01:23:57.421Z,9.87
2018-05-13T01:26:24.984Z,10.40
2018-05-13T01:28:53.249Z,9.77
2018-05-13T01:31:20.772Z,9.50
2018-05-13T01:33:48.319Z,8.70
2018-05-13T01:36:15.858Z,9.03
2018-05-13T01:38:44.139Z,9.00
2018-05-13T01:41:12.403Z,8.40
2018-05-13T01:43:40.922Z,8.20
2018-05-13T01:46:08.434Z,6.63
2018-05-13T01:48:35.952Z,6.80
2018-05-13T01:51:03.446Z,6.47
2018-05-13T01:53:31.748Z,6.17
2018-05-13T01:56:00.233Z,6.87
2018-05-13T01:58:28.499Z,6.80
2018-05-13T02:00:56.778Z,6.40
2018-05-13T02:03:25.044Z,6.20
2018-05-13T02:05:52.570Z,6.00
2018-05-13T02:08:20.106Z,6.80
2018-05-13T02:10:47.637Z,6.57
2018-05-13T02:13:15.915Z,6.33
2018-05-13T02:15:44.450Z,7.10
2018-05-13T02:18:11.958Z,7.30
2018-05-13T02:20:40.229Z,6.73
2018-05-13T02:23:08.523Z,7.40
2018-05-13T02:25:36.043Z,7.80
2018-05-13T02:28:03.572Z,7.30
2018-05-13T02:30:31.080Z,7.30
2018-05-13T02:32:59.375Z,7.37
2018-05-13T02:35:27.643Z,6.53
2018-05-13T02:37:55.948Z,7.00
2018-05-13T02:40:23.448Z,6.30
2018-05-13T02:42:50.965Z,6.93
2018-05-13T02:45:18.484Z,6.00
2018-05-13T02:47:46.102Z,6.10
2018-05-13T02:50:13.624Z,6.70
2018-05-13T02:52:41.896Z,7.20
2018-05-13T02:55:09.405Z,6.10
2018-05-13T02:57:36.916Z,6.87
2018-05-13T03:00:05.202Z,6.63
2018-05-13T03:02:33.457Z,5.90
2018-05-13T03:05:01.172Z,6.33
2018-05-13T03:07:28.683Z,5.77
2018-05-13T03:09:56.188Z,5.73
2018-05-13T03:12:23.713Z,5.80
2018-05-13T03:14:51.975Z,6.00
2018-05-13T03:17:19.503Z,5.70
2018-05-13T03:19:47.006Z,4.70
2018-05-13T03:22:15.303Z,4.53
2018-05-13T03:24:42.793Z,4.47
2018-05-13T03:27:10.316Z,4.07
2018-05-13T03:29:37.835Z,3.80
2018-05-13T03:32:05.335Z,3.87
2018-05-13T03:34:33.624Z,4.40
2018-05-13T03:37:01.343Z,4.40
2018-05-13T03:39:28.859Z,4.70
2018-05-13T03:41:56.591Z,4.20
2018-05-13T03:44:24.145Z,3.70
2018-05-13T03:46:52.419Z,3.93
2018-05-13T03:49:20.685Z,3.60
2018-05-13T03:51:48.199Z,3.33
2018-05-13T03:54:15.686Z,4.20
2018-05-13T03:56:43.203Z,3.87
2018-05-13T03:59:10.693Z,4.30
2018-05-13T04:01:38.205Z,4.20
2018-05-13T04:04:06.486Z,4.20
2018-05-13T04:06:34.778Z,4.20
2018-05-13T04:09:14.071Z,4.30
2018-05-13T04:11:53.454Z,3.97
2018-05-13T04:14:33.767Z,4.03
2018-05-13T04:17:01.291Z,3.90
2018-05-13T04:19:28.782Z,4.07
2018-05-13T04:21:56.298Z,3.90
2018-05-13T04:24:23.810Z,4.13
2018-05-13T04:26:51.314Z,4.20
2018-05-13T04:29:18.847Z,4.60
2018-05-13T04:31:47.112Z,4.30
2018-05-13T04:34:14.626Z,4.20
2018-05-13T04:36:42.136Z,4.43
2018-05-13T04:39:10.432Z,4.17
2018-05-13T04:41:38.665Z,4.80
2018-05-13T04:44:06.208Z,4.50
2018-05-13T04:46:33.701Z,4.00
2018-05-13T04:49:01.566Z,4.13
2018-05-13T04:51:29.063Z,4.23
2018-05-13T04:53:56.574Z,4.37
2018-05-13T04:56:24.104Z,4.47
2018-05-13T04:58:51.602Z,4.30
2018-05-13T05:01:19.338Z,4.23
2018-05-13T05:03:46.831Z,4.50
2018-05-13T05:06:14.359Z,4.30
2018-05-13T05:08:41.850Z,3.93
2018-05-13T05:11:10.151Z,4.67
2018-05-13T05:13:37.671Z,4.23
2018-05-13T05:16:05.170Z,4.07
2018-05-13T05:18:32.678Z,4.30
2018-05-13T05:21:00.177Z,4.40
2018-05-13T05:23:28.471Z,4.30
2018-05-13T05:25:55.958Z,4.67
2018-05-13T05:28:23.471Z,4.20
2018-05-13T05:30:51.726Z,4.30
2018-05-13T05:33:19.258Z,4.97
2018-05-13T05:35:46.772Z,4.50
2018-05-13T05:38:15.047Z,4.93
2018-05-13T05:40:43.326Z,4.10
2018-05-13T05:43:11.623Z,4.77
2018-05-13T05:45:39.111Z,4.60
2018-05-13T05:48:06.610Z,4.53
2018-05-13T05:50:34.118Z,4.67
2018-05-13T05:53:01.622Z,4.33
2018-05-13T05:55:29.138Z,4.60
2018-05-13T05:57:56.850Z,4.90
2018-05-13T06:00:24.367Z,4.30
2018-05-13T06:02:51.862Z,4.83
2018-05-13T06:05:19.374Z,5.00
2018-05-13T06:07:46.874Z,5.03
2018-05-13T06:10:14.910Z,4.87
2018-05-13T06:12:42.422Z,4.50
2018-05-13T06:15:09.914Z,4.40
2018-05-13T06:17:37.451Z,5.10
2018-05-13T06:20:05.720Z,4.80
2018-05-13T06:22:33.226Z,5.30
2018-05-13T06:25:00.719Z,6.30
2018-05-13T06:27:28.238Z,6.33
2018-05-13T06:29:55.717Z,5.17
2018-05-13T06:32:23.214Z,5.50
2018-05-13T06:34:50.717Z,5.87
2018-05-13T06:37:18.226Z,5.93
2018-05-13T06:39:45.821Z,5.77
2018-05-13T06:42:13.266Z,5.83
2018-05-13T06:44:41.550Z,6.50
2018-05-13T06:47:09.822Z,6.40
2018-05-13T06:49:38.096Z,5.70
2018-05-13T06:52:06.354Z,6.03
2018-05-13T06:54:33.855Z,5.90
2018-05-13T06:57:01.370Z,5.67
2018-05-13T06:59:28.870Z,6.50
2018-05-13T07:01:56.393Z,6.17
2018-05-13T07:04:23.896Z,5.77
2018-05-13T07:06:51.440Z,6.60
2018-05-13T07:09:19.710Z,6.60
2018-05-13T07:11:47.991Z,5.93
2018-05-13T07:14:16.254Z,6.37
2018-05-13T07:16:44.514Z,6.07
2018-05-13T07:19:12.038Z,6.23
2018-05-13T07:21:39.547Z,6.53
2018-05-13T07:24:07.833Z,5.87
2018-05-13T07:26:36.087Z,6.30
2018-05-13T07:29:03.615Z,6.23
2018-05-13T07:31:31.116Z,6.50
2018-05-13T07:33:58.650Z,7.03
2018-05-13T07:36:26.151Z,6.50
2018-05-13T07:38:53.646Z,8.87
2018-05-13T07:41:21.182Z,11.50
2018-05-13T07:43:48.906Z,9.77
2018-05-13T07:46:16.434Z,8.47
2018-05-13T07:48:43.943Z,10.77
2018-05-13T07:51:11.456Z,10.40
2018-05-13T07:53:38.964Z,10.20
2018-05-13T07:56:07.286Z,10.80
2018-05-13T07:58:34.806Z,10.87
2018-05-13T08:01:03.104Z,11.30
2018-05-13T08:03:30.613Z,11.43
2018-05-13T08:05:58.118Z,10.70
2018-05-13T08:08:25.651Z,10.70
2018-05-13T08:10:53.159Z,10.80
2018-05-13T08:13:20.696Z,10.30
2018-05-13T08:15:48.312Z,12.37
2018-05-13T08:18:15.848Z,10.50
2018-05-13T08:20:43.364Z,9.40
2018-05-13T08:23:11.665Z,10.90
2018-05-13T08:25:39.171Z,11.03
2018-05-13T08:28:06.692Z,10.93
2018-05-13T08:30:34.267Z,9.90
2018-05-13T08:33:01.770Z,10.50
2018-05-13T08:35:29.288Z,9.13
2018-05-13T08:37:56.794Z,10.00
2018-05-13T08:40:25.083Z,9.60
2018-05-13T08:42:53.439Z,9.80
2018-05-13T08:45:20.930Z,9.10
2018-05-13T08:47:48.421Z,9.80
2018-05-13T08:50:15.949Z,10.27
2018-05-13T08:52:43.451Z,8.23
2018-05-13T08:55:10.948Z,8.60
2018-05-13T08:57:39.269Z,9.03
2018-05-13T09:00:06.802Z,9.30
2018-05-13T09:02:36.205Z,8.80
2018-05-13T09:05:03.727Z,8.60
2018-05-13T09:07:31.246Z,9.13
2018-05-13T09:09:58.769Z,8.70
2018-05-13T09:12:27.053Z,9.90
2018-05-13T09:14:55.531Z,9.77
2018-05-13T09:17:23.794Z,8.73
2018-05-13T09:19:51.324Z,9.53
2018-05-13T09:22:18.815Z,8.33
2018-05-13T09:24:46.346Z,9.70
2018-05-13T09:27:13.843Z,9.23
2018-05-13T09:29:42.136Z,10.57
2018-05-13T09:32:10.404Z,10.33
2018-05-13T09:34:39.267Z,8.37
2018-05-13T09:37:06.772Z,9.30
2018-05-13T09:39:34.335Z,9.40
2018-05-13T09:42:01.793Z,9.87
2018-05-13T09:44:29.293Z,10.17
2018-05-13T09:46:56.822Z,9.93
2018-05-13T09:49:24.338Z,10.13
2018-05-13T09:51:51.866Z,10.30
2018-05-13T09:54:19.369Z,11.20
2018-05-13T09:56:47.671Z,10.93
2018-05-13T09:59:15.216Z,10.50
2018-05-13T10:01:42.732Z,10.87
2018-05-13T10:04:10.261Z,10.77
2018-05-13T10:06:37.815Z,10.83
2018-05-13T10:09:05.625Z,10.30
2018-05-13T10:11:33.127Z,10.63
2018-05-13T10:14:00.644Z,11.70
2018-05-13T10:16:28.145Z,11.50
2018-05-13T10:18:55.667Z,14.47
2018-05-13T10:21:23.185Z,13.20
2018-05-13T10:23:50.717Z,13.00
2018-05-13T10:26:18.275Z,13.70
2018-05-13T10:28:46.016Z,13.53
2018-05-13T10:31:15.094Z,13.60
2018-05-13T10:33:42.823Z,12.70
2018-05-13T10:36:10.394Z,13.53
2018-05-13T10:38:38.667Z,13.27
2018-05-13T10:41:06.202Z,14.30
2018-05-13T10:43:34.486Z,14.30
2018-05-13T10:46:02.000Z,12.90
2018-05-13T10:48:29.525Z,13.20
2018-05-13T10:50:57.036Z,12.90
2018-05-13T10:53:24.565Z,13.00
2018-05-13T10:55:52.069Z,11.67
2018-05-13T10:58:20.362Z,13.37
2018-05-13T11:00:47.879Z,14.23
2018-05-13T11:03:15.395Z,13.63
2018-05-13T11:05:42.918Z,12.87
2018-05-13T11:08:11.197Z,13.20
2018-05-13T11:10:39.491Z,13.57
2018-05-13T11:13:06.994Z,14.23
2018-05-13T11:15:34.554Z,14.00
2018-05-13T11:18:02.054Z,13.70
2018-05-13T11:20:30.355Z,13.27
2018-05-13T11:22:57.866Z,13.50
2018-05-13T11:25:25.377Z,14.17
2018-05-13T11:27:52.904Z,14.47
2018-05-13T11:30:20.446Z,14.73
2018-05-13T11:32:47.987Z,13.40
2018-05-13T11:35:15.537Z,13.83
2018-05-13T11:37:43.050Z,13.90
2018-05-13T11:40:10.558Z,13.13
2018-05-13T11:42:38.076Z,13.07
2018-05-13T11:45:06.373Z,14.03
2018-05-13T11:47:33.872Z,15.67
2018-05-13T11:50:01.409Z,15.40
2018-05-13T11:52:29.032Z,15.30
2018-05-13T11:54:57.305Z,15.97
2018-05-13T11:57:25.578Z,16.23
2018-05-13T11:59:53.882Z,16.27
2018-05-13T12:02:21.441Z,15.93
2018-05-13T12:04:48.906Z,15.80
2018-05-13T12:07:16.433Z,14.63
2018-05-13T12:09:44.716Z,16.37
2018-05-13T12:12:13.013Z,14.60
2018-05-13T12:14:41.278Z,15.90
2018-05-13T12:17:09.565Z,13.50
2018-05-13T12:19:37.838Z,15.17
2018-05-13T12:22:05.338Z,12.83
2018-05-13T12:24:32.867Z,14.43
2018-05-13T12:27:00.367Z,14.13
2018-05-13T12:29:27.882Z,13.30
2018-05-13T12:31:56.146Z,13.43
2018-05-13T12:34:24.431Z,14.20
2018-05-13T12:36:52.705Z,12.40
2018-05-13T12:39:21.002Z,13.10
2018-05-13T12:41:48.506Z,13.70
2018-05-13T12:44:16.011Z,12.07
2018-05-13T12:46:44.291Z,13.00
2018-05-13T12:49:11.793Z,12.90
2018-05-13T12:51:39.326Z,12.30
2018-05-13T12:54:06.825Z,12.90
2018-05-13T12:56:34.352Z,11.70
2018-05-13T12:59:01.858Z,12.63
2018-05-13T13:01:29.380Z,12.13
2018-05-13T13:03:56.888Z,12.00
2018-05-13T13:06:24.385Z,13.70
2018-05-13T13:08:51.916Z,11.70
2018-05-13T13:11:20.185Z,14.70
2018-05-13T13:13:48.471Z,11.37
2018-05-13T13:16:16.743Z,12.93
2018-05-13T13:18:44.262Z,12.73
2018-05-13T13:21:11.794Z,13.77
2018-05-13T13:23:39.286Z,12.57
2018-05-13T13:26:06.813Z,13.80
2018-05-13T13:28:34.319Z,14.30
2018-05-13T13:31:01.863Z,16.07
2018-05-13T13:33:29.378Z,14.97
2018-05-13T13:35:56.908Z,14.70
2018-05-13T13:38:25.174Z,13.37
2018-05-13T13:40:52.697Z,14.80
2018-05-13T13:43:20.198Z,13.80
2018-05-13T13:45:47.699Z,14.23
2018-05-13T13:48:15.225Z,15.03
2018-05-13T13:50:43.500Z,13.70
2018-05-13T13:53:11.636Z,15.30
2018-05-13T13:55:39.132Z,15.63
2018-05-13T13:58:07.089Z,16.27
2018-05-13T14:00:34.618Z,15.40
2018-05-13T14:03:02.177Z,15.63
2018-05-13T14:05:29.684Z,15.53
2018-05-13T14:07:57.955Z,14.37
2018-05-13T14:10:25.482Z,14.80
2018-05-13T14:12:52.984Z,13.13
2018-05-13T14:15:21.294Z,14.47
2018-05-13T14:17:48.803Z,15.00
2018-05-13T14:20:16.402Z,13.83
2018-05-13T14:22:43.869Z,13.10
2018-05-13T14:25:11.397Z,14.10
2018-05-13T14:27:39.717Z,14.07
2018-05-13T14:30:07.216Z,14.20
2018-05-13T14:32:34.750Z,15.00
2018-05-13T14:35:02.262Z,14.03
2018-05-13T14:37:30.550Z,13.00
2018-05-13T14:39:58.818Z,14.97
2018-05-13T14:42:27.098Z,12.87
2018-05-13T14:44:55.379Z,12.97
2018-05-13T14:47:23.723Z,13.10
2018-05-13T14:49:51.254Z,12.57
2018-05-13T14:52:18.771Z,12.97
2018-05-13T14:54:47.074Z,11.73
2018-05-13T14:57:14.620Z,13.50
2018-05-13T14:59:42.131Z,13.50
2018-05-13T15:02:09.651Z,12.63
2018-05-13T15:04:37.159Z,12.83
2018-05-13T15:07:04.686Z,11.90
2018-05-13T15:09:32.199Z,12.87
2018-05-13T15:12:00.521Z,13.00
2018-05-13T15:14:28.021Z,11.87
2018-05-13T15:16:55.540Z,11.80
2018-05-13T15:19:23.049Z,12.30
2018-05-13T15:21:50.559Z,11.47
2018-05-13T15:24:18.088Z,12.10
2018-05-13T15:26:46.368Z,11.47
2018-05-13T15:29:13.913Z,12.87
2018-05-13T15:31:42.214Z,11.77
2018-05-13T15:34:09.751Z,13.37
2018-05-13T15:36:38.049Z,11.20
2018-05-13T15:39:05.578Z,12.37
2018-05-13T15:41:33.886Z,12.13
2018-05-13T15:44:01.403Z,11.20
2018-05-13T15:46:28.938Z,11.97
2018-05-13T15:48:56.591Z,11.60
2018-05-13T15:51:24.116Z,11.50
2018-05-13T15:53:52.389Z,12.77
2018-05-13T15:56:19.890Z,12.27
2018-05-13T15:58:47.450Z,12.77
2018-05-13T16:01:14.952Z,11.50
2018-05-13T16:03:42.480Z,11.47
2018-05-13T16:06:09.997Z,12.67
2018-05-13T16:08:37.528Z,13.60
2018-05-13T16:11:05.022Z,11.77
2018-05-13T16:13:32.527Z,12.77
2018-05-13T16:16:00.068Z,11.50
2018-05-13T16:18:27.592Z,11.73
2018-05-13T16:20:55.914Z,10.90
2018-05-13T16:23:23.433Z,10.70
2018-05-13T16:25:50.985Z,12.00
2018-05-13T16:28:19.263Z,11.70
2018-05-13T16:30:47.568Z,12.03
2018-05-13T16:33:15.072Z,11.03
2018-05-13T16:35:42.584Z,11.27
2018-05-13T16:38:10.159Z,11.30
2018-05-13T16:40:37.663Z,10.63
2018-05-13T16:43:05.286Z,12.53
2018-05-13T16:45:32.797Z,11.20
2018-05-13T16:48:01.161Z,10.67
2018-05-13T16:50:29.469Z,11.77
2018-05-13T16:52:57.020Z,11.20
2018-05-13T16:55:25.329Z,11.77
2018-05-13T16:57:52.846Z,10.73
2018-05-13T17:00:20.373Z,11.70
2018-05-13T17:02:47.874Z,12.50
2018-05-13T17:05:15.415Z,11.03
2018-05-13T17:07:42.925Z,10.10
2018-05-13T17:10:10.467Z,12.10
2018-05-13T17:12:37.987Z,10.57
2018-05-13T17:15:05.719Z,13.33
2018-05-13T17:17:33.293Z,12.27
2018-05-13T17:20:00.794Z,11.73
2018-05-13T17:22:29.091Z,13.00
2018-05-13T17:24:56.594Z,12.27
2018-05-13T17:27:24.118Z,10.60
2018-05-13T17:29:52.133Z,9.30
2018-05-13T17:32:19.640Z,12.50
2018-05-13T17:34:47.181Z,12.17
2018-05-13T17:37:15.563Z,12.53
2018-05-13T17:39:43.060Z,11.90
2018-05-13T17:42:10.587Z,12.23
2018-05-13T17:44:38.877Z,11.90
2018-05-13T17:47:06.411Z,11.50
2018-05-13T17:49:33.986Z,11.03
2018-05-13T17:52:01.459Z,11.33
2018-05-13T17:54:28.962Z,12.07
2018-05-13T17:56:56.492Z,10.80
2018-05-13T17:59:23.993Z,12.13
2018-05-13T18:01:51.541Z,12.77
2018-05-13T18:04:19.041Z,11.80
2018-05-13T18:06:47.313Z,12.10
2018-05-13T18:09:14.854Z,11.83
2018-05-13T18:11:42.435Z,11.53
2018-05-13T18:14:09.916Z,12.47
2018-05-13T18:16:37.462Z,14.23
2018-05-13T18:19:05.766Z,10.67
2018-05-13T18:21:36.036Z,12.10
2018-05-13T18:24:04.235Z,13.40
2018-05-13T18:26:32.518Z,13.37
2018-05-13T18:29:00.787Z,13.40
2018-05-13T18:31:29.103Z,13.90
2018-05-13T18:33:57.289Z,14.20
2018-05-13T18:36:24.810Z,13.53
2018-05-13T18:38:52.324Z,14.00
2018-05-13T18:41:19.855Z,15.90
2018-05-13T18:43:47.364Z,15.70
2018-05-13T18:46:14.950Z,16.20
2018-05-13T18:48:43.227Z,15.90
2018-05-13T18:51:11.520Z,14.17
2018-05-13T18:53:39.113Z,14.20
2018-05-13T18:56:06.635Z,14.17
2018-05-13T18:58:34.184Z,14.50
2018-05-13T19:01:02.451Z,15.53
2018-05-13T19:03:29.994Z,15.90
2018-05-13T19:05:57.523Z,15.57
2018-05-13T19:08:25.187Z,16.00
2018-05-13T19:10:52.727Z,16.03
2018-05-13T19:13:20.245Z,14.33
2018-05-13T19:15:48.560Z,15.43
2018-05-13T19:18:16.062Z,16.47
2018-05-13T19:20:43.585Z,15.57
2018-05-13T19:23:11.104Z,14.40
2018-05-13T19:25:38.611Z,14.50
2018-05-13T19:28:06.145Z,14.20
2018-05-13T19:30:33.664Z,16.40
2018-05-13T19:33:01.166Z,14.80
2018-05-13T19:35:28.751Z,14.50
2018-05-13T19:37:56.338Z,14.57
2018-05-13T19:40:23.861Z,13.60
2018-05-13T19:42:51.367Z,15.63
2018-05-13T19:45:18.901Z,14.23
2018-05-13T19:47:46.416Z,15.43
2018-05-13T19:50:13.942Z,14.17
2018-05-13T19:52:41.496Z,15.10
2018-05-13T19:55:09.021Z,14.63
2018-05-13T19:57:36.543Z,12.77
2018-05-13T20:00:04.059Z,11.70
2018-05-13T20:02:31.573Z,12.17
2018-05-13T20:04:59.864Z,12.53
2018-05-13T20:07:27.382Z,11.63
2018-05-13T20:09:54.919Z,11.60
2018-05-13T20:12:22.432Z,12.10
2018-05-13T20:14:50.699Z,12.60
2018-05-13T20:17:18.972Z,12.50
2018-05-13T20:19:46.497Z,13.10
2018-05-13T20:22:14.008Z,11.37
2018-05-13T20:24:42.302Z,12.77
2018-05-13T20:27:09.804Z,12.40
2018-05-13T20:29:37.363Z,11.40
2018-05-13T20:32:05.667Z,13.37
2018-05-13T20:34:34.077Z,13.00
2018-05-13T20:37:01.591Z,13.20
2018-05-13T20:39:29.102Z,12.93
2018-05-13T20:41:56.622Z,11.57
2018-05-13T20:44:24.334Z,11.00
2018-05-13T20:46:52.726Z,10.77
2018-05-13T20:49:20.328Z,12.27
2018-05-13T20:51:47.906Z,10.40
2018-05-13T20:54:16.346Z,10.63
2018-05-13T20:56:43.852Z,9.70
2018-05-13T20:59:12.154Z,10.43
2018-05-13T21:01:39.675Z,10.13
2018-05-13T21:04:07.201Z,10.07
2018-05-13T21:06:34.716Z,10.73
2018-05-13T21:09:02.265Z,11.23
2018-05-13T21:11:30.543Z,10.80
2018-05-13T21:13:58.819Z,11.30
2018-05-13T21:16:26.338Z,10.37
2018-05-13T21:18:53.971Z,10.00
2018-05-13T21:21:21.511Z,9.20
2018-05-13T21:23:49.016Z,8.93
2018-05-13T21:26:16.535Z,9.43
2018-05-13T21:28:44.045Z,9.67
2018-05-13T21:31:11.570Z,10.10
2018-05-13T21:33:39.070Z,9.50
2018-05-13T21:36:06.573Z,10.63
2018-05-13T21:38:34.114Z,9.20
2018-05-13T21:41:02.378Z,9.60
2018-05-13T21:43:29.899Z,8.50
2018-05-13T21:45:57.409Z,10.23
2018-05-13T21:48:25.698Z,9.67
2018-05-13T21:50:53.218Z,10.97
2018-05-13T21:53:21.531Z,10.73
2018-05-13T21:55:49.816Z,11.27
2018-05-13T21:58:18.080Z,10.43
2018-05-13T22:00:46.368Z,10.70
2018-05-13T22:03:13.866Z,11.20
2018-05-13T22:05:41.382Z,10.30
2018-05-13T22:08:09.687Z,11.37
2018-05-13T22:10:37.210Z,10.50
2018-05-13T22:13:05.474Z,11.10
2018-05-13T22:15:32.993Z,10.10
2018-05-13T22:18:00.491Z,11.23
2018-05-13T22:20:27.996Z,9.97
2018-05-13T22:22:55.522Z,11.50
2018-05-13T22:25:23.800Z,11.80
2018-05-13T22:27:52.103Z,11.73
2018-05-13T22:30:19.627Z,12.33
2018-05-13T22:32:47.154Z,10.90
2018-05-13T22:35:14.666Z,10.10
2018-05-13T22:37:42.958Z,10.60
2018-05-13T22:40:10.457Z,10.63
2018-05-13T22:42:37.958Z,10.93
2018-05-13T22:45:06.243Z,10.50
2018-05-13T22:47:33.741Z,11.27
2018-05-13T22:50:01.271Z,12.47
2018-05-13T22:52:28.785Z,11.80
2018-05-13T22:54:56.306Z,12.93
2018-05-13T22:57:23.802Z,13.17
2018-05-13T22:59:51.317Z,10.97
2018-05-13T23:02:18.827Z,11.90
2018-05-13T23:04:46.350Z,13.43
2018-05-13T23:07:13.847Z,13.10
2018-05-13T23:09:41.346Z,12.07
2018-05-13T23:12:08.861Z,13.83
2018-05-13T23:14:36.354Z,14.20
2018-05-13T23:17:04.849Z,12.90
2018-05-13T23:19:32.350Z,12.57
2018-05-13T23:21:59.873Z,13.80
2018-05-13T23:24:27.375Z,13.90
2018-05-13T23:26:54.878Z,13.53
2018-05-13T23:29:23.186Z,14.77
2018-05-13T23:31:50.694Z,13.67
2018-05-13T23:34:18.220Z,14.53
2018-05-13T23:36:45.744Z,13.97
2018-05-13T23:39:13.273Z,14.30
2018-05-13T23:41:40.769Z,13.70
2018-05-13T23:44:08.273Z,14.40
2018-05-13T23:46:35.841Z,15.00
2018-05-13T23:49:03.346Z,14.70
2018-05-13T23:51:30.876Z,14.70
2018-05-13T23:53:59.154Z,13.90
2018-05-13T23:56:27.451Z,13.60
2018-05-13T23:58:54.960Z,13.90
